Pagina principale
METAR-TAF:

METAR-TAF

Aeroporti :

Aeroporto di Gran Canaria

Gran Canaria, Spagna

latitudine: 27-56N, longitudine: 015-23W, altezza: 23 m

Osservazione

Il bollettino è stato emesso 41 minuti fa, alle 09:30 UTC
Vento 19 kt da nord/nord-est
Temperature 24°C
Umidità 65%
Pressione 1020 hPa
Visibilità 10 km o più
Poco nuvoloso ad un'altezza di 2500 ft
Nubi sparse ad un'altezza di 3500 ft

METAR: GCLP 200930Z 02019KT 9999 FEW025 SCT035 24/17 Q1020 NOSIG

Ora: 11:11 (10:11 UTC)

Previsione

Il bollettino è stato emesso 2 ore e 11 minuti fa, alle 08:00 UTC
Previsione valida dal 20 alle 09 UTC al 21 alle 09 UTC
Vento 20 kt da nord/nord-est
Visibilità 10 km o più
Nubi sparse ad un'altezza di 4000 ft
Probabilità 30% :
Temporaneamente
dal 20 alle 12 UTC al 20 alle 18 UTC
Vento 20 kt da nord/nord-est con raffiche fino a 30 kt

TAF: GCLP 200800Z 2009/2109 02020KT 9999 SCT040 TX25/2014Z TN20/2106Z PROB30 TEMPO 2012/2018 02020G30KT

Osservazioni e previsioni meteorologiche di più di 4000 aeroporti (messaggi METAR e TAF).

Le stazioni disponibili sono rappresentate dai dischi gialli e rossi sulla carta.

Puntare il mouse per vedere il nome della stazione.

Clicca sopra per visualizzare le osservazioni e previsioni meteorologiche.

Per cambiare la mappa : fare clic sui pulsanti verdi con una croce nera per ingrandire, il pulsante verde con un trattino per diminuire, o sulla freccia verde per le mappe adiacenti.


METAR-TAF: